Quad City International Airport (MLI)


Airport Diagram
Current Weather/Forecast (VFR Conditions)
METAR KMLI 171552Z 22006KT 10SM CLR 27/18 A3009 RMK AO2 SLP185 T02670183
TAF KMLI 171137Z 1712/1812 15006KT P6SM SKC FM171300 19005KT P6SM SKC FM171700 22008KT P6SM SCT250 FM172100 28007KT P6SM SCT150 FM180000 36005KT P6SM BKN100

All Charts
General
Chart Name Download
AIRPORT DIAGRAM
TAKEOFF MINIMUMS
ALTERNATE MINIMUMS
HOT SPOT

Approaches
Chart Name Download
ILS OR LOC RWY 09
ILS OR LOC RWY 27
RNAV (GPS) RWY 09
RNAV (GPS) RWY 13
RNAV (GPS) RWY 27
RNAV (GPS) RWY 31